sensor_id;sensor_type;location;lat;lon;timestamp;P1;durP1;ratioP1;P2;durP2;ratioP2
6614;SDS011;3343;42.896;23.912;2022-07-23T00:00:11;7.27;;;4.63;;
6614;SDS011;3343;42.896;23.912;2022-07-23T00:02:38;8.48;;;4.93;;
6614;SDS011;3343;42.896;23.912;2022-07-23T00:05:07;6.25;;;4.53;;
6614;SDS011;3343;42.896;23.912;2022-07-23T00:07:35;8.48;;;4.57;;
6614;SDS011;3343;42.896;23.912;2022-07-23T00:10:02;7.70;;;4.38;;
6614;SDS011;3343;42.896;23.912;2022-07-23T00:12:29;7.03;;;4.80;;
6614;SDS011;3343;42.896;23.912;2022-07-23T00:14:55;9.45;;;4.47;;
6614;SDS011;3343;42.896;23.912;2022-07-23T00:17:22;6.10;;;4.20;;
6614;SDS011;3343;42.896;23.912;2022-07-23T00:19:49;7.07;;;4.90;;
6614;SDS011;3343;42.896;23.912;2022-07-23T00:22:19;5.50;;;4.53;;
6614;SDS011;3343;42.896;23.912;2022-07-23T00:24:46;7.73;;;4.37;;
6614;SDS011;3343;42.896;23.912;2022-07-23T00:27:12;9.87;;;4.73;;
6614;SDS011;3343;42.896;23.912;2022-07-23T00:29:39;7.00;;;4.73;;
6614;SDS011;3343;42.896;23.912;2022-07-23T00:32:06;6.80;;;4.83;;
6614;SDS011;3343;42.896;23.912;2022-07-23T00:34:33;7.53;;;4.93;;
6614;SDS011;3343;42.896;23.912;2022-07-23T00:37:00;6.77;;;4.53;;
6614;SDS011;3343;42.896;23.912;2022-07-23T00:39:28;8.43;;;4.87;;
6614;SDS011;3343;42.896;23.912;2022-07-23T00:41:55;6.73;;;4.57;;
6614;SDS011;3343;42.896;23.912;2022-07-23T00:44:23;12.10;;;5.03;;
6614;SDS011;3343;42.896;23.912;2022-07-23T00:46:53;6.83;;;4.50;;
6614;SDS011;3343;42.896;23.912;2022-07-23T00:49:21;5.93;;;3.97;;
6614;SDS011;3343;42.896;23.912;2022-07-23T00:51:49;7.43;;;4.77;;
6614;SDS011;3343;42.896;23.912;2022-07-23T00:54:17;6.57;;;4.30;;
6614;SDS011;3343;42.896;23.912;2022-07-23T00:56:46;9.67;;;4.77;;
6614;SDS011;3343;42.896;23.912;2022-07-23T00:59:13;7.20;;;4.60;;
6614;SDS011;3343;42.896;23.912;2022-07-23T01:01:40;6.70;;;4.80;;
6614;SDS011;3343;42.896;23.912;2022-07-23T01:04:10;7.57;;;4.67;;
6614;SDS011;3343;42.896;23.912;2022-07-23T01:06:37;7.43;;;4.73;;
6614;SDS011;3343;42.896;23.912;2022-07-23T01:09:05;7.13;;;4.60;;
6614;SDS011;3343;42.896;23.912;2022-07-23T01:11:33;7.60;;;4.70;;
6614;SDS011;3343;42.896;23.912;2022-07-23T01:14:08;7.00;;;4.30;;
6614;SDS011;3343;42.896;23.912;2022-07-23T01:16:36;7.17;;;4.43;;
6614;SDS011;3343;42.896;23.912;2022-07-23T01:19:03;9.20;;;5.30;;
6614;SDS011;3343;42.896;23.912;2022-07-23T01:21:32;9.87;;;4.80;;
6614;SDS011;3343;42.896;23.912;2022-07-23T01:24:03;7.57;;;4.20;;
6614;SDS011;3343;42.896;23.912;2022-07-23T01:26:31;9.60;;;4.57;;
6614;SDS011;3343;42.896;23.912;2022-07-23T01:28:58;6.77;;;4.73;;
6614;SDS011;3343;42.896;23.912;2022-07-23T01:31:25;7.10;;;4.57;;
6614;SDS011;3343;42.896;23.912;2022-07-23T01:33:52;9.77;;;5.10;;
6614;SDS011;3343;42.896;23.912;2022-07-23T01:36:19;6.57;;;4.33;;
6614;SDS011;3343;42.896;23.912;2022-07-23T01:38:45;6.17;;;4.50;;
6614;SDS011;3343;42.896;23.912;2022-07-23T01:41:15;8.07;;;4.77;;
6614;SDS011;3343;42.896;23.912;2022-07-23T01:43:42;6.37;;;4.60;;
6614;SDS011;3343;42.896;23.912;2022-07-23T01:46:09;7.77;;;4.40;;
6614;SDS011;3343;42.896;23.912;2022-07-23T01:48:36;7.47;;;4.63;;
6614;SDS011;3343;42.896;23.912;2022-07-23T01:51:03;6.50;;;4.17;;
6614;SDS011;3343;42.896;23.912;2022-07-23T01:53:30;8.90;;;4.40;;
6614;SDS011;3343;42.896;23.912;2022-07-23T01:55:57;7.73;;;4.57;;
6614;SDS011;3343;42.896;23.912;2022-07-23T01:58:25;8.50;;;4.90;;
6614;SDS011;3343;42.896;23.912;2022-07-23T02:00:53;6.87;;;4.93;;
6614;SDS011;3343;42.896;23.912;2022-07-23T02:03:20;8.67;;;5.07;;
6614;SDS011;3343;42.896;23.912;2022-07-23T02:05:48;6.17;;;4.77;;
6614;SDS011;3343;42.896;23.912;2022-07-23T02:08:15;8.27;;;4.80;;
6614;SDS011;3343;42.896;23.912;2022-07-23T02:10:42;5.47;;;4.90;;
6614;SDS011;3343;42.896;23.912;2022-07-23T02:13:09;8.77;;;4.93;;
6614;SDS011;3343;42.896;23.912;2022-07-23T02:15:37;8.63;;;4.67;;
6614;SDS011;3343;42.896;23.912;2022-07-23T02:18:05;7.63;;;5.00;;
6614;SDS011;3343;42.896;23.912;2022-07-23T02:20:33;9.37;;;4.73;;
6614;SDS011;3343;42.896;23.912;2022-07-23T02:23:00;8.97;;;5.07;;
6614;SDS011;3343;42.896;23.912;2022-07-23T02:25:27;6.03;;;4.60;;
6614;SDS011;3343;42.896;23.912;2022-07-23T02:27:53;7.47;;;4.60;;
6614;SDS011;3343;42.896;23.912;2022-07-23T02:30:20;4.97;;;4.37;;
6614;SDS011;3343;42.896;23.912;2022-07-23T02:32:48;7.10;;;4.50;;
6614;SDS011;3343;42.896;23.912;2022-07-23T02:35:15;8.67;;;5.10;;
6614;SDS011;3343;42.896;23.912;2022-07-23T02:37:42;7.57;;;4.43;;
6614;SDS011;3343;42.896;23.912;2022-07-23T02:40:09;6.93;;;4.77;;
6614;SDS011;3343;42.896;23.912;2022-07-23T02:42:37;8.77;;;5.10;;
6614;SDS011;3343;42.896;23.912;2022-07-23T02:45:04;7.20;;;4.63;;
6614;SDS011;3343;42.896;23.912;2022-07-23T02:47:32;7.00;;;4.80;;
6614;SDS011;3343;42.896;23.912;2022-07-23T02:50:00;6.43;;;4.97;;
6614;SDS011;3343;42.896;23.912;2022-07-23T02:52:29;9.80;;;5.13;;
6614;SDS011;3343;42.896;23.912;2022-07-23T02:54:55;7.93;;;4.60;;
6614;SDS011;3343;42.896;23.912;2022-07-23T02:57:22;11.67;;;4.90;;
6614;SDS011;3343;42.896;23.912;2022-07-23T02:59:49;13.13;;;5.10;;
6614;SDS011;3343;42.896;23.912;2022-07-23T03:02:16;12.20;;;6.50;;
6614;SDS011;3343;42.896;23.912;2022-07-23T03:04:43;6.67;;;4.80;;
6614;SDS011;3343;42.896;23.912;2022-07-23T03:07:11;8.90;;;5.23;;
6614;SDS011;3343;42.896;23.912;2022-07-23T03:20:18;8.20;;;5.17;;
6614;SDS011;3343;42.896;23.912;2022-07-23T03:22:45;13.10;;;5.17;;
6614;SDS011;3343;42.896;23.912;2022-07-23T03:25:13;7.90;;;4.87;;
6614;SDS011;3343;42.896;23.912;2022-07-23T03:27:40;9.10;;;5.07;;
6614;SDS011;3343;42.896;23.912;2022-07-23T03:30:07;9.83;;;5.40;;
6614;SDS011;3343;42.896;23.912;2022-07-23T03:32:35;7.60;;;4.90;;
6614;SDS011;3343;42.896;23.912;2022-07-23T03:35:01;7.60;;;5.03;;
6614;SDS011;3343;42.896;23.912;2022-07-23T03:37:31;5.90;;;4.80;;
6614;SDS011;3343;42.896;23.912;2022-07-23T03:39:58;7.27;;;5.10;;
6614;SDS011;3343;42.896;23.912;2022-07-23T03:42:25;6.33;;;4.97;;
6614;SDS011;3343;42.896;23.912;2022-07-23T03:44:53;8.63;;;5.07;;
6614;SDS011;3343;42.896;23.912;2022-07-23T03:47:20;6.83;;;5.03;;
6614;SDS011;3343;42.896;23.912;2022-07-23T03:49:47;12.63;;;5.50;;
6614;SDS011;3343;42.896;23.912;2022-07-23T03:52:14;7.67;;;4.73;;
6614;SDS011;3343;42.896;23.912;2022-07-23T03:54:42;6.97;;;4.23;;
6614;SDS011;3343;42.896;23.912;2022-07-23T03:57:09;9.60;;;4.57;;
6614;SDS011;3343;42.896;23.912;2022-07-23T03:59:36;6.43;;;4.23;;
6614;SDS011;3343;42.896;23.912;2022-07-23T04:02:03;7.17;;;4.93;;
6614;SDS011;3343;42.896;23.912;2022-07-23T04:04:30;5.83;;;4.90;;
6614;SDS011;3343;42.896;23.912;2022-07-23T04:06:56;7.13;;;4.37;;
6614;SDS011;3343;42.896;23.912;2022-07-23T04:09:23;8.05;;;4.80;;
6614;SDS011;3343;42.896;23.912;2022-07-23T04:11:51;6.50;;;5.22;;
6614;SDS011;3343;42.896;23.912;2022-07-23T04:14:18;8.07;;;4.53;;
6614;SDS011;3343;42.896;23.912;2022-07-23T04:16:45;7.70;;;5.13;;
6614;SDS011;3343;42.896;23.912;2022-07-23T04:19:12;8.27;;;5.38;;
6614;SDS011;3343;42.896;23.912;2022-07-23T04:21:39;7.82;;;5.85;;
6614;SDS011;3343;42.896;23.912;2022-07-23T04:24:06;6.53;;;5.20;;
6614;SDS011;3343;42.896;23.912;2022-07-23T04:26:33;17.25;;;6.47;;
6614;SDS011;3343;42.896;23.912;2022-07-23T04:29:01;11.50;;;5.85;;
6614;SDS011;3343;42.896;23.912;2022-07-23T04:31:28;7.82;;;5.80;;
6614;SDS011;3343;42.896;23.912;2022-07-23T04:33:55;7.45;;;5.38;;
6614;SDS011;3343;42.896;23.912;2022-07-23T04:36:22;8.63;;;5.32;;
6614;SDS011;3343;42.896;23.912;2022-07-23T04:38:48;11.45;;;6.20;;
6614;SDS011;3343;42.896;23.912;2022-07-23T04:41:15;8.60;;;5.00;;
6614;SDS011;3343;42.896;23.912;2022-07-23T04:43:42;9.20;;;5.47;;
6614;SDS011;3343;42.896;23.912;2022-07-23T04:46:11;9.27;;;5.50;;
6614;SDS011;3343;42.896;23.912;2022-07-23T04:48:37;7.13;;;5.07;;
6614;SDS011;3343;42.896;23.912;2022-07-23T04:51:04;13.13;;;5.68;;
6614;SDS011;3343;42.896;23.912;2022-07-23T04:53:31;8.05;;;5.43;;
6614;SDS011;3343;42.896;23.912;2022-07-23T04:55:58;8.15;;;5.78;;
6614;SDS011;3343;42.896;23.912;2022-07-23T04:58:25;9.68;;;5.60;;
6614;SDS011;3343;42.896;23.912;2022-07-23T05:00:52;9.25;;;5.70;;
6614;SDS011;3343;42.896;23.912;2022-07-23T05:03:20;11.30;;;5.82;;
6614;SDS011;3343;42.896;23.912;2022-07-23T05:05:47;9.77;;;5.97;;
6614;SDS011;3343;42.896;23.912;2022-07-23T05:08:14;9.25;;;6.57;;
6614;SDS011;3343;42.896;23.912;2022-07-23T05:10:41;11.40;;;6.50;;
6614;SDS011;3343;42.896;23.912;2022-07-23T05:13:08;16.17;;;6.88;;
6614;SDS011;3343;42.896;23.912;2022-07-23T05:15:36;12.73;;;7.15;;
6614;SDS011;3343;42.896;23.912;2022-07-23T05:18:03;11.57;;;6.93;;
6614;SDS011;3343;42.896;23.912;2022-07-23T05:20:31;11.68;;;6.47;;
6614;SDS011;3343;42.896;23.912;2022-07-23T05:22:57;10.05;;;6.30;;
6614;SDS011;3343;42.896;23.912;2022-07-23T05:25:24;11.45;;;6.63;;
6614;SDS011;3343;42.896;23.912;2022-07-23T05:27:51;14.30;;;6.75;;
6614;SDS011;3343;42.896;23.912;2022-07-23T05:30:18;10.85;;;6.03;;
6614;SDS011;3343;42.896;23.912;2022-07-23T05:32:45;12.27;;;6.22;;
6614;SDS011;3343;42.896;23.912;2022-07-23T05:35:12;10.90;;;6.65;;
6614;SDS011;3343;42.896;23.912;2022-07-23T05:37:40;13.73;;;5.90;;
6614;SDS011;3343;42.896;23.912;2022-07-23T05:40:08;11.48;;;6.05;;
6614;SDS011;3343;42.896;23.912;2022-07-23T05:42:36;13.57;;;6.28;;
6614;SDS011;3343;42.896;23.912;2022-07-23T05:45:05;13.98;;;6.07;;
6614;SDS011;3343;42.896;23.912;2022-07-23T05:47:38;11.23;;;6.90;;
6614;SDS011;3343;42.896;23.912;2022-07-23T05:50:06;9.85;;;6.20;;
6614;SDS011;3343;42.896;23.912;2022-07-23T05:52:33;10.13;;;6.05;;
6614;SDS011;3343;42.896;23.912;2022-07-23T05:55:02;11.02;;;5.50;;
6614;SDS011;3343;42.896;23.912;2022-07-23T05:57:29;10.88;;;6.13;;
6614;SDS011;3343;42.896;23.912;2022-07-23T05:59:55;6.90;;;5.05;;
6614;SDS011;3343;42.896;23.912;2022-07-23T06:02:23;7.82;;;4.88;;
6614;SDS011;3343;42.896;23.912;2022-07-23T06:04:49;8.85;;;5.20;;
6614;SDS011;3343;42.896;23.912;2022-07-23T06:07:16;14.05;;;5.20;;
6614;SDS011;3343;42.896;23.912;2022-07-23T06:09:44;10.43;;;5.20;;
6614;SDS011;3343;42.896;23.912;2022-07-23T06:12:13;9.80;;;5.70;;
6614;SDS011;3343;42.896;23.912;2022-07-23T06:14:40;8.48;;;6.00;;
6614;SDS011;3343;42.896;23.912;2022-07-23T06:17:07;8.20;;;4.78;;
6614;SDS011;3343;42.896;23.912;2022-07-23T06:19:34;8.05;;;5.45;;
6614;SDS011;3343;42.896;23.912;2022-07-23T06:22:01;7.95;;;5.05;;
6614;SDS011;3343;42.896;23.912;2022-07-23T06:24:29;6.13;;;5.22;;
6614;SDS011;3343;42.896;23.912;2022-07-23T06:26:56;9.75;;;5.07;;
6614;SDS011;3343;42.896;23.912;2022-07-23T06:29:24;9.20;;;5.47;;
6614;SDS011;3343;42.896;23.912;2022-07-23T06:31:51;9.77;;;5.40;;
6614;SDS011;3343;42.896;23.912;2022-07-23T06:34:18;10.27;;;5.15;;
6614;SDS011;3343;42.896;23.912;2022-07-23T06:36:44;10.27;;;4.55;;
6614;SDS011;3343;42.896;23.912;2022-07-23T06:39:11;11.38;;;5.95;;
6614;SDS011;3343;42.896;23.912;2022-07-23T06:41:38;8.27;;;5.53;;
6614;SDS011;3343;42.896;23.912;2022-07-23T06:44:05;10.40;;;5.43;;
6614;SDS011;3343;42.896;23.912;2022-07-23T06:46:33;12.02;;;5.07;;
6614;SDS011;3343;42.896;23.912;2022-07-23T06:49:00;11.10;;;5.15;;
6614;SDS011;3343;42.896;23.912;2022-07-23T06:51:29;10.98;;;5.00;;
6614;SDS011;3343;42.896;23.912;2022-07-23T06:53:56;6.53;;;4.65;;
6614;SDS011;3343;42.896;23.912;2022-07-23T06:56:23;13.63;;;4.88;;
6614;SDS011;3343;42.896;23.912;2022-07-23T06:58:50;7.38;;;4.80;;
6614;SDS011;3343;42.896;23.912;2022-07-23T07:01:17;7.55;;;4.45;;
6614;SDS011;3343;42.896;23.912;2022-07-23T07:03:45;8.48;;;4.63;;
6614;SDS011;3343;42.896;23.912;2022-07-23T07:06:13;10.65;;;5.10;;
6614;SDS011;3343;42.896;23.912;2022-07-23T07:08:40;8.77;;;4.65;;
6614;SDS011;3343;42.896;23.912;2022-07-23T07:11:08;8.65;;;4.93;;
6614;SDS011;3343;42.896;23.912;2022-07-23T07:13:35;13.85;;;5.47;;
6614;SDS011;3343;42.896;23.912;2022-07-23T07:16:02;7.90;;;4.20;;
6614;SDS011;3343;42.896;23.912;2022-07-23T07:18:29;10.55;;;4.95;;
6614;SDS011;3343;42.896;23.912;2022-07-23T07:20:57;7.68;;;4.65;;
6614;SDS011;3343;42.896;23.912;2022-07-23T07:23:24;10.07;;;5.40;;
6614;SDS011;3343;42.896;23.912;2022-07-23T07:25:51;7.30;;;5.30;;
6614;SDS011;3343;42.896;23.912;2022-07-23T07:28:18;7.63;;;5.30;;
6614;SDS011;3343;42.896;23.912;2022-07-23T07:30:45;10.02;;;4.90;;
6614;SDS011;3343;42.896;23.912;2022-07-23T07:33:12;7.53;;;4.78;;
6614;SDS011;3343;42.896;23.912;2022-07-23T07:35:38;12.57;;;5.38;;
6614;SDS011;3343;42.896;23.912;2022-07-23T07:38:07;8.68;;;5.28;;
6614;SDS011;3343;42.896;23.912;2022-07-23T07:40:34;9.93;;;5.10;;
6614;SDS011;3343;42.896;23.912;2022-07-23T07:43:01;8.93;;;5.28;;
6614;SDS011;3343;42.896;23.912;2022-07-23T07:45:28;8.65;;;5.30;;
6614;SDS011;3343;42.896;23.912;2022-07-23T07:47:55;10.55;;;5.07;;
6614;SDS011;3343;42.896;23.912;2022-07-23T07:50:22;12.95;;;5.68;;
6614;SDS011;3343;42.896;23.912;2022-07-23T07:52:49;9.55;;;5.22;;
6614;SDS011;3343;42.896;23.912;2022-07-23T07:55:17;10.00;;;5.60;;
6614;SDS011;3343;42.896;23.912;2022-07-23T07:57:44;10.27;;;5.45;;
6614;SDS011;3343;42.896;23.912;2022-07-23T08:00:11;13.18;;;5.82;;
6614;SDS011;3343;42.896;23.912;2022-07-23T08:02:42;5.80;;;5.20;;
6614;SDS011;3343;42.896;23.912;2022-07-23T08:05:10;10.68;;;5.40;;
6614;SDS011;3343;42.896;23.912;2022-07-23T08:07:37;10.35;;;5.55;;
6614;SDS011;3343;42.896;23.912;2022-07-23T08:10:05;18.10;;;5.38;;
6614;SDS011;3343;42.896;23.912;2022-07-23T08:12:41;10.43;;;5.25;;
6614;SDS011;3343;42.896;23.912;2022-07-23T08:15:10;11.15;;;5.22;;
6614;SDS011;3343;42.896;23.912;2022-07-23T08:17:37;8.93;;;4.47;;
6614;SDS011;3343;42.896;23.912;2022-07-23T08:20:05;8.38;;;4.60;;
6614;SDS011;3343;42.896;23.912;2022-07-23T08:22:47;6.20;;;4.80;;
6614;SDS011;3343;42.896;23.912;2022-07-23T08:25:16;11.80;;;4.57;;
6614;SDS011;3343;42.896;23.912;2022-07-23T08:27:47;13.43;;;4.32;;
6614;SDS011;3343;42.896;23.912;2022-07-23T08:30:14;12.02;;;5.50;;
6614;SDS011;3343;42.896;23.912;2022-07-23T08:32:48;10.05;;;5.32;;
6614;SDS011;3343;42.896;23.912;2022-07-23T08:35:17;10.77;;;4.43;;
6614;SDS011;3343;42.896;23.912;2022-07-23T08:37:47;12.38;;;4.88;;
6614;SDS011;3343;42.896;23.912;2022-07-23T08:40:14;12.18;;;4.57;;
6614;SDS011;3343;42.896;23.912;2022-07-23T08:42:41;6.00;;;4.30;;
6614;SDS011;3343;42.896;23.912;2022-07-23T08:45:10;9.77;;;4.85;;
6614;SDS011;3343;42.896;23.912;2022-07-23T08:47:38;12.77;;;4.65;;
6614;SDS011;3343;42.896;23.912;2022-07-23T08:50:06;10.98;;;4.28;;
6614;SDS011;3343;42.896;23.912;2022-07-23T08:52:34;6.50;;;4.25;;
6614;SDS011;3343;42.896;23.912;2022-07-23T08:55:02;12.30;;;4.35;;
6614;SDS011;3343;42.896;23.912;2022-07-23T08:57:30;8.77;;;5.05;;
6614;SDS011;3343;42.896;23.912;2022-07-23T08:59:56;11.75;;;4.53;;
6614;SDS011;3343;42.896;23.912;2022-07-23T09:02:25;12.85;;;4.80;;
6614;SDS011;3343;42.896;23.912;2022-07-23T09:04:52;9.13;;;5.00;;
6614;SDS011;3343;42.896;23.912;2022-07-23T09:07:19;14.95;;;4.70;;
6614;SDS011;3343;42.896;23.912;2022-07-23T09:09:45;8.80;;;4.32;;
6614;SDS011;3343;42.896;23.912;2022-07-23T09:12:12;14.23;;;4.75;;
6614;SDS011;3343;42.896;23.912;2022-07-23T09:14:41;9.70;;;4.50;;
6614;SDS011;3343;42.896;23.912;2022-07-23T09:17:09;10.05;;;4.63;;
6614;SDS011;3343;42.896;23.912;2022-07-23T09:19:39;8.70;;;4.50;;
6614;SDS011;3343;42.896;23.912;2022-07-23T09:22:19;9.50;;;4.78;;
6614;SDS011;3343;42.896;23.912;2022-07-23T09:25:04;11.35;;;5.45;;
6614;SDS011;3343;42.896;23.912;2022-07-23T09:27:52;6.68;;;4.65;;
6614;SDS011;3343;42.896;23.912;2022-07-23T09:30:22;9.48;;;4.35;;
6614;SDS011;3343;42.896;23.912;2022-07-23T09:33:06;10.52;;;4.35;;
6614;SDS011;3343;42.896;23.912;2022-07-23T09:35:46;12.45;;;4.72;;
6614;SDS011;3343;42.896;23.912;2022-07-23T09:38:14;9.95;;;5.10;;
6614;SDS011;3343;42.896;23.912;2022-07-23T09:40:42;10.30;;;4.47;;
6614;SDS011;3343;42.896;23.912;2022-07-23T09:43:10;8.93;;;4.50;;
6614;SDS011;3343;42.896;23.912;2022-07-23T09:45:37;10.35;;;4.88;;
6614;SDS011;3343;42.896;23.912;2022-07-23T09:48:12;6.72;;;4.45;;
6614;SDS011;3343;42.896;23.912;2022-07-23T09:50:40;12.10;;;4.78;;
6614;SDS011;3343;42.896;23.912;2022-07-23T09:53:09;10.13;;;5.10;;
6614;SDS011;3343;42.896;23.912;2022-07-23T09:55:36;11.75;;;4.90;;
6614;SDS011;3343;42.896;23.912;2022-07-23T09:58:04;13.63;;;4.70;;
6614;SDS011;3343;42.896;23.912;2022-07-23T10:00:33;9.02;;;4.45;;
6614;SDS011;3343;42.896;23.912;2022-07-23T10:03:01;9.15;;;4.50;;
6614;SDS011;3343;42.896;23.912;2022-07-23T10:05:28;10.90;;;4.80;;
6614;SDS011;3343;42.896;23.912;2022-07-23T10:07:56;8.15;;;5.22;;
6614;SDS011;3343;42.896;23.912;2022-07-23T10:10:29;9.02;;;5.05;;
6614;SDS011;3343;42.896;23.912;2022-07-23T10:12:56;9.95;;;4.32;;
6614;SDS011;3343;42.896;23.912;2022-07-23T10:15:49;11.52;;;4.57;;
6614;SDS011;3343;42.896;23.912;2022-07-23T10:18:16;10.30;;;4.68;;
6614;SDS011;3343;42.896;23.912;2022-07-23T10:20:43;11.60;;;5.07;;
6614;SDS011;3343;42.896;23.912;2022-07-23T10:23:14;10.90;;;5.07;;
6614;SDS011;3343;42.896;23.912;2022-07-23T10:25:51;10.65;;;4.97;;
6614;SDS011;3343;42.896;23.912;2022-07-23T10:28:30;9.07;;;4.65;;
6614;SDS011;3343;42.896;23.912;2022-07-23T10:31:10;15.05;;;5.45;;
6614;SDS011;3343;42.896;23.912;2022-07-23T10:33:51;9.82;;;4.68;;
6614;SDS011;3343;42.896;23.912;2022-07-23T10:36:28;8.13;;;4.35;;
6614;SDS011;3343;42.896;23.912;2022-07-23T10:38:59;12.40;;;4.82;;
6614;SDS011;3343;42.896;23.912;2022-07-23T10:41:33;10.38;;;4.75;;
6614;SDS011;3343;42.896;23.912;2022-07-23T10:44:08;8.63;;;4.85;;
6614;SDS011;3343;42.896;23.912;2022-07-23T10:46:46;10.45;;;4.35;;
6614;SDS011;3343;42.896;23.912;2022-07-23T10:49:26;9.75;;;4.30;;
6614;SDS011;3343;42.896;23.912;2022-07-23T10:54:51;11.32;;;4.90;;
6614;SDS011;3343;42.896;23.912;2022-07-23T10:57:21;11.52;;;5.20;;
6614;SDS011;3343;42.896;23.912;2022-07-23T11:02:51;11.15;;;4.63;;
6614;SDS011;3343;42.896;23.912;2022-07-23T11:05:19;12.05;;;4.80;;
6614;SDS011;3343;42.896;23.912;2022-07-23T11:10:40;9.95;;;4.95;;
6614;SDS011;3343;42.896;23.912;2022-07-23T11:16:03;8.45;;;4.93;;
6614;SDS011;3343;42.896;23.912;2022-07-23T11:18:58;7.13;;;5.18;;
6614;SDS011;3343;42.896;23.912;2022-07-23T11:21:42;11.60;;;5.53;;
6614;SDS011;3343;42.896;23.912;2022-07-23T11:24:11;11.43;;;4.65;;
6614;SDS011;3343;42.896;23.912;2022-07-23T11:26:50;11.85;;;5.13;;
6614;SDS011;3343;42.896;23.912;2022-07-23T11:29:40;11.32;;;4.95;;
6614;SDS011;3343;42.896;23.912;2022-07-23T11:32:24;10.80;;;4.97;;
6614;SDS011;3343;42.896;23.912;2022-07-23T11:34:54;9.15;;;4.90;;
6614;SDS011;3343;42.896;23.912;2022-07-23T11:37:29;11.50;;;5.20;;
6614;SDS011;3343;42.896;23.912;2022-07-23T11:40:04;18.38;;;4.95;;
6614;SDS011;3343;42.896;23.912;2022-07-23T11:42:34;11.63;;;5.40;;
6614;SDS011;3343;42.896;23.912;2022-07-23T11:45:04;20.17;;;5.70;;
6614;SDS011;3343;42.896;23.912;2022-07-23T11:47:33;14.88;;;5.10;;
6614;SDS011;3343;42.896;23.912;2022-07-23T11:50:01;17.10;;;5.30;;
6614;SDS011;3343;42.896;23.912;2022-07-23T11:52:30;10.55;;;4.65;;
6614;SDS011;3343;42.896;23.912;2022-07-23T11:54:59;12.02;;;5.32;;
6614;SDS011;3343;42.896;23.912;2022-07-23T11:57:28;7.07;;;4.60;;
6614;SDS011;3343;42.896;23.912;2022-07-23T11:59:57;8.10;;;4.90;;
6614;SDS011;3343;42.896;23.912;2022-07-23T12:02:31;9.43;;;4.65;;
6614;SDS011;3343;42.896;23.912;2022-07-23T12:04:58;16.45;;;5.03;;
6614;SDS011;3343;42.896;23.912;2022-07-23T12:07:26;9.43;;;4.75;;
6614;SDS011;3343;42.896;23.912;2022-07-23T12:09:55;12.95;;;5.00;;
6614;SDS011;3343;42.896;23.912;2022-07-23T12:12:23;17.33;;;4.97;;
6614;SDS011;3343;42.896;23.912;2022-07-23T12:14:51;14.02;;;5.03;;
6614;SDS011;3343;42.896;23.912;2022-07-23T12:17:20;10.95;;;4.65;;
6614;SDS011;3343;42.896;23.912;2022-07-23T12:19:49;16.40;;;5.03;;
6614;SDS011;3343;42.896;23.912;2022-07-23T12:22:16;12.52;;;5.20;;
6614;SDS011;3343;42.896;23.912;2022-07-23T12:24:54;17.58;;;5.07;;
6614;SDS011;3343;42.896;23.912;2022-07-23T12:27:23;13.52;;;4.82;;
6614;SDS011;3343;42.896;23.912;2022-07-23T12:29:51;11.57;;;4.85;;
6614;SDS011;3343;42.896;23.912;2022-07-23T12:32:19;11.85;;;4.57;;
6614;SDS011;3343;42.896;23.912;2022-07-23T12:34:50;15.82;;;4.82;;
6614;SDS011;3343;42.896;23.912;2022-07-23T12:37:27;12.88;;;4.57;;
6614;SDS011;3343;42.896;23.912;2022-07-23T12:39:56;18.42;;;5.30;;
6614;SDS011;3343;42.896;23.912;2022-07-23T12:42:23;16.55;;;5.40;;
6614;SDS011;3343;42.896;23.912;2022-07-23T12:45:07;10.35;;;4.82;;
6614;SDS011;3343;42.896;23.912;2022-07-23T12:47:56;14.15;;;5.00;;
6614;SDS011;3343;42.896;23.912;2022-07-23T12:50:33;15.05;;;4.63;;
6614;SDS011;3343;42.896;23.912;2022-07-23T12:53:05;13.88;;;4.55;;
6614;SDS011;3343;42.896;23.912;2022-07-23T12:55:33;14.25;;;4.85;;
6614;SDS011;3343;42.896;23.912;2022-07-23T12:58:04;13.27;;;5.43;;
6614;SDS011;3343;42.896;23.912;2022-07-23T13:03:26;15.43;;;5.25;;
6614;SDS011;3343;42.896;23.912;2022-07-23T13:06:00;14.07;;;4.53;;
6614;SDS011;3343;42.896;23.912;2022-07-23T13:08:29;16.00;;;5.90;;
6614;SDS011;3343;42.896;23.912;2022-07-23T13:10:58;16.27;;;4.82;;
6614;SDS011;3343;42.896;23.912;2022-07-23T13:13:25;11.00;;;5.18;;
6614;SDS011;3343;42.896;23.912;2022-07-23T13:15:54;14.25;;;4.72;;
6614;SDS011;3343;42.896;23.912;2022-07-23T13:18:21;18.30;;;5.30;;
6614;SDS011;3343;42.896;23.912;2022-07-23T13:20:48;19.42;;;4.85;;
6614;SDS011;3343;42.896;23.912;2022-07-23T13:23:17;12.23;;;4.90;;
6614;SDS011;3343;42.896;23.912;2022-07-23T13:25:45;12.15;;;5.30;;
6614;SDS011;3343;42.896;23.912;2022-07-23T13:28:12;10.82;;;4.63;;
6614;SDS011;3343;42.896;23.912;2022-07-23T13:30:39;10.68;;;4.35;;
6614;SDS011;3343;42.896;23.912;2022-07-23T13:33:07;9.32;;;4.40;;
6614;SDS011;3343;42.896;23.912;2022-07-23T13:35:34;13.02;;;5.63;;
6614;SDS011;3343;42.896;23.912;2022-07-23T13:38:04;12.20;;;4.95;;
6614;SDS011;3343;42.896;23.912;2022-07-23T13:40:34;13.60;;;5.10;;
6614;SDS011;3343;42.896;23.912;2022-07-23T13:43:04;7.80;;;4.75;;
6614;SDS011;3343;42.896;23.912;2022-07-23T13:45:31;16.00;;;5.32;;
6614;SDS011;3343;42.896;23.912;2022-07-23T13:47:58;18.83;;;5.80;;
6614;SDS011;3343;42.896;23.912;2022-07-23T13:50:25;13.88;;;5.05;;
6614;SDS011;3343;42.896;23.912;2022-07-23T13:52:52;11.57;;;4.85;;
6614;SDS011;3343;42.896;23.912;2022-07-23T13:55:19;10.77;;;4.95;;
6614;SDS011;3343;42.896;23.912;2022-07-23T13:57:47;12.20;;;5.40;;
6614;SDS011;3343;42.896;23.912;2022-07-23T14:00:15;11.43;;;4.43;;
6614;SDS011;3343;42.896;23.912;2022-07-23T14:02:42;9.98;;;4.78;;
6614;SDS011;3343;42.896;23.912;2022-07-23T14:05:09;11.73;;;5.13;;
6614;SDS011;3343;42.896;23.912;2022-07-23T14:07:37;10.00;;;4.43;;
6614;SDS011;3343;42.896;23.912;2022-07-23T14:10:05;12.88;;;4.65;;
6614;SDS011;3343;42.896;23.912;2022-07-23T14:12:33;14.57;;;4.75;;
6614;SDS011;3343;42.896;23.912;2022-07-23T14:15:02;12.35;;;4.30;;
6614;SDS011;3343;42.896;23.912;2022-07-23T14:17:31;16.77;;;5.65;;
6614;SDS011;3343;42.896;23.912;2022-07-23T14:19:58;12.25;;;5.25;;
6614;SDS011;3343;42.896;23.912;2022-07-23T14:22:25;10.60;;;4.80;;
6614;SDS011;3343;42.896;23.912;2022-07-23T14:24:52;11.32;;;5.07;;
6614;SDS011;3343;42.896;23.912;2022-07-23T14:27:19;12.25;;;5.28;;
6614;SDS011;3343;42.896;23.912;2022-07-23T14:29:46;15.52;;;5.13;;
6614;SDS011;3343;42.896;23.912;2022-07-23T14:32:14;11.70;;;4.88;;
6614;SDS011;3343;42.896;23.912;2022-07-23T14:34:41;12.65;;;5.10;;
6614;SDS011;3343;42.896;23.912;2022-07-23T14:37:09;14.80;;;5.13;;
6614;SDS011;3343;42.896;23.912;2022-07-23T14:39:36;10.52;;;5.10;;
6614;SDS011;3343;42.896;23.912;2022-07-23T14:42:03;13.20;;;4.95;;
6614;SDS011;3343;42.896;23.912;2022-07-23T14:44:31;13.38;;;5.13;;
6614;SDS011;3343;42.896;23.912;2022-07-23T14:46:57;12.85;;;5.00;;
6614;SDS011;3343;42.896;23.912;2022-07-23T14:49:26;17.02;;;5.00;;
6614;SDS011;3343;42.896;23.912;2022-07-23T14:51:54;11.70;;;5.15;;
6614;SDS011;3343;42.896;23.912;2022-07-23T14:54:20;11.77;;;4.95;;
6614;SDS011;3343;42.896;23.912;2022-07-23T14:56:48;14.02;;;4.90;;
6614;SDS011;3343;42.896;23.912;2022-07-23T14:59:14;12.75;;;5.25;;
6614;SDS011;3343;42.896;23.912;2022-07-23T15:01:41;14.30;;;4.80;;
6614;SDS011;3343;42.896;23.912;2022-07-23T15:04:08;8.45;;;4.70;;
6614;SDS011;3343;42.896;23.912;2022-07-23T15:06:37;16.25;;;5.38;;
6614;SDS011;3343;42.896;23.912;2022-07-23T15:09:04;7.78;;;4.78;;
6614;SDS011;3343;42.896;23.912;2022-07-23T15:11:31;14.75;;;5.28;;
6614;SDS011;3343;42.896;23.912;2022-07-23T15:13:59;14.52;;;6.32;;
6614;SDS011;3343;42.896;23.912;2022-07-23T15:16:26;14.70;;;5.30;;
6614;SDS011;3343;42.896;23.912;2022-07-23T15:18:53;12.57;;;4.93;;
6614;SDS011;3343;42.896;23.912;2022-07-23T15:21:20;7.72;;;4.30;;
6614;SDS011;3343;42.896;23.912;2022-07-23T15:23:48;10.93;;;4.68;;
6614;SDS011;3343;42.896;23.912;2022-07-23T15:26:17;11.90;;;5.18;;
6614;SDS011;3343;42.896;23.912;2022-07-23T15:28:44;8.75;;;4.97;;